Time;durP1;ratioP1;P1;durP2;ratioP2;P2;SDS_P1;SDS_P2;PMS_P1;PMS_P2;Temp;Humidity;BMP_temperature;BMP_pressure;BME280_temperature;BME280_humidity;BME280_pressure;Samples;Min_cycle;Max_cycle;Signal;HPM_P1;HPM_P2
2023/10/05 00:01:30;;;;;;;8.43;3.38;;;23.70;52.80;;;;;;7680240;22;80484;-57
2023/10/05 00:04:40;;;;;;;5.40;3.33;;;23.70;52.80;;;;;;7679435;22;81068;-57
2023/10/05 00:07:40;;;;;;;5.50;3.38;;;23.60;52.70;;;;;;7679214;22;80877;-57
2023/10/05 00:10:41;;;;;;;5.80;3.38;;;23.70;52.90;;;;;;7677875;22;80256;-55
2023/10/05 00:13:44;;;;;;;6.22;3.08;;;23.70;52.80;;;;;;7652785;22;80537;-56
2023/10/05 00:16:47;;;;;;;4.18;2.90;;;23.60;52.80;;;;;;7679469;22;80390;-56
2023/10/05 00:19:48;;;;;;;5.32;3.38;;;23.70;52.80;;;;;;7678497;22;82205;-57
2023/10/05 00:22:51;;;;;;;5.85;3.03;;;23.60;52.80;;;;;;7677936;22;80815;-55
2023/10/05 00:25:52;;;;;;;4.10;3.00;;;23.60;52.90;;;;;;7679427;22;80330;-58
2023/10/05 00:29:01;;;;;;;6.53;2.97;;;23.60;52.80;;;;;;7678040;22;80880;-59
2023/10/05 00:32:03;;;;;;;4.07;2.80;;;23.60;52.90;;;;;;7678456;22;80152;-56
2023/10/05 00:38:16;;;;;;;4.50;2.70;;;23.60;53.00;;;;;;7652248;22;82802;-59
2023/10/05 00:41:18;;;;;;;4.18;2.83;;;23.60;52.90;;;;;;7679074;22;80189;-59
2023/10/05 00:44:19;;;;;;;5.50;3.03;;;23.60;52.90;;;;;;7652279;22;81584;-57
2023/10/05 00:47:19;;;;;;;4.97;3.13;;;23.60;52.90;;;;;;7679545;22;80375;-59
2023/10/05 00:50:21;;;;;;;4.18;2.90;;;23.60;52.90;;;;;;7678851;22;80641;-58
2023/10/05 00:53:21;;;;;;;5.05;2.88;;;23.60;52.90;;;;;;7677708;22;80175;-58
2023/10/05 00:56:23;;;;;;;6.43;3.03;;;23.60;53.00;;;;;;7678874;22;80776;-57
2023/10/05 00:59:23;;;;;;;5.18;3.13;;;23.60;52.90;;;;;;7677654;22;80397;-59
2023/10/05 01:02:25;;;;;;;7.35;3.28;;;23.60;52.90;;;;;;7651688;22;83476;-58
2023/10/05 01:05:34;;;;;;;6.30;2.70;;;23.50;52.90;;;;;;7678836;22;80055;-58
2023/10/05 01:08:39;;;;;;;4.32;2.83;;;23.60;53.20;;;;;;7679184;22;80344;-59
2023/10/05 01:11:43;;;;;;;5.13;2.88;;;23.60;53.00;;;;;;7679494;22;81002;-58
2023/10/05 01:14:53;;;;;;;5.00;3.20;;;23.60;53.00;;;;;;7679888;22;81512;-59
2023/10/05 01:17:56;;;;;;;4.63;2.78;;;23.60;53.00;;;;;;7651087;22;86051;-59
2023/10/05 01:20:58;;;;;;;4.65;2.95;;;23.50;52.90;;;;;;7658058;22;82049;-56
2023/10/05 01:23:58;;;;;;;6.05;3.22;;;23.50;52.90;;;;;;7677078;22;81678;-59
2023/10/05 01:26:59;;;;;;;5.70;3.00;;;23.50;52.90;;;;;;7676751;22;81763;-58
2023/10/05 01:30:00;;;;;;;6.10;3.17;;;23.50;52.90;;;;;;7679380;22;80411;-58
2023/10/05 01:33:01;;;;;;;5.80;2.95;;;23.50;52.90;;;;;;7679284;22;80570;-59
2023/10/05 01:36:03;;;;;;;5.68;3.08;;;23.50;52.90;;;;;;7678171;22;80165;-57
2023/10/05 01:39:08;;;;;;;4.47;3.15;;;23.50;52.90;;;;;;7677559;22;80064;-59
2023/10/05 01:42:11;;;;;;;5.55;2.67;;;23.50;53.00;;;;;;7678755;22;80420;-59
2023/10/05 01:45:23;;;;;;;4.78;2.97;;;23.50;53.00;;;;;;7676639;22;81416;-57
2023/10/05 01:48:28;;;;;;;3.78;2.67;;;23.50;53.00;;;;;;7676248;22;81600;-59
2023/10/05 01:51:30;;;;;;;4.38;2.60;;;23.50;53.00;;;;;;7678406;22;80210;-59
2023/10/05 01:54:32;;;;;;;5.13;2.83;;;23.50;53.00;;;;;;7677773;22;80518;-58
2023/10/05 01:57:33;;;;;;;6.45;3.63;;;23.50;53.00;;;;;;7677821;22;80215;-56
2023/10/05 02:00:37;;;;;;;3.97;2.55;;;23.50;53.50;;;;;;7677139;22;83161;-59
2023/10/05 02:03:39;;;;;;;5.75;3.15;;;23.50;53.60;;;;;;7676927;22;83040;-58
2023/10/05 02:06:40;;;;;;;4.45;2.35;;;23.50;53.60;;;;;;7678432;22;81588;-58
2023/10/05 02:09:40;;;;;;;5.78;2.65;;;23.50;53.50;;;;;;7679840;22;80507;-57
2023/10/05 02:12:41;;;;;;;4.47;3.30;;;23.50;53.50;;;;;;7677828;22;83710;-58
2023/10/05 02:15:41;;;;;;;4.60;3.22;;;23.50;53.60;;;;;;7678198;22;81642;-59
2023/10/05 02:18:42;;;;;;;5.80;3.17;;;23.50;53.50;;;;;;7674018;22;82134;-57
2023/10/05 02:21:43;;;;;;;6.95;3.28;;;23.50;53.40;;;;;;7676378;22;81033;-58
2023/10/05 02:24:44;;;;;;;4.63;2.58;;;23.50;53.40;;;;;;7648960;22;83411;-59
2023/10/05 02:27:46;;;;;;;5.57;3.03;;;23.50;53.40;;;;;;7678753;22;81636;-59
2023/10/05 02:30:47;;;;;;;5.78;2.90;;;23.50;53.30;;;;;;7650733;22;80466;-59
2023/10/05 02:33:52;;;;;;;6.78;3.22;;;23.50;53.10;;;;;;7651223;22;83320;-60
2023/10/05 02:36:54;;;;;;;8.00;3.25;;;23.50;53.10;;;;;;7652287;22;83410;-61
2023/10/05 02:39:57;;;;;;;4.88;2.70;;;23.50;53.10;;;;;;7678118;22;80924;-58
2023/10/05 02:43:02;;;;;;;5.22;3.03;;;23.50;53.20;;;;;;7679850;22;80629;-59
2023/10/05 02:46:09;;;;;;;7.25;3.17;;;23.50;53.20;;;;;;7647157;22;82368;-59
2023/10/05 02:49:10;;;;;;;5.53;2.83;;;23.50;53.20;;;;;;7678929;22;80464;-56
2023/10/05 02:52:13;;;;;;;4.50;3.05;;;23.50;53.20;;;;;;7679524;22;80676;-57
2023/10/05 02:55:14;;;;;;;4.50;2.67;;;23.50;53.10;;;;;;7679170;22;81073;-58
2023/10/05 02:58:15;;;;;;;7.35;3.00;;;23.50;53.20;;;;;;7679972;22;81266;-59
2023/10/05 03:01:16;;;;;;;5.07;2.95;;;23.40;53.30;;;;;;7678076;22;80353;-57
2023/10/05 03:04:16;;;;;;;4.85;2.80;;;23.40;53.30;;;;;;7680231;22;80010;-57
2023/10/05 03:07:18;;;;;;;5.60;3.28;;;23.40;53.30;;;;;;7652293;22;83223;-58
2023/10/05 03:10:23;;;;;;;3.88;2.72;;;23.50;53.30;;;;;;7652932;22;82791;-56
2023/10/05 03:13:24;;;;;;;3.88;2.60;;;23.40;53.30;;;;;;7626125;22;81802;-58
2023/10/05 03:16:26;;;;;;;4.30;2.80;;;23.40;53.30;;;;;;7678593;22;81139;-58
2023/10/05 03:19:27;;;;;;;3.80;2.63;;;23.40;53.30;;;;;;7650366;22;82599;-56
2023/10/05 03:22:27;;;;;;;5.57;2.53;;;23.50;53.40;;;;;;7653446;22;81275;-65
2023/10/05 03:25:33;;;;;;;3.65;2.38;;;23.50;53.40;;;;;;7652590;22;82002;-65
2023/10/05 03:28:35;;;;;;;4.22;2.60;;;23.50;53.30;;;;;;7680042;22;80359;-64
2023/10/05 03:31:43;;;;;;;5.25;3.38;;;23.50;54.00;;;;;;7678894;22;80256;-66
2023/10/05 03:35:04;;;;;;;5.20;2.97;;;23.50;53.50;;;;;;7654034;22;83195;-66
2023/10/05 03:38:08;;;;;;;7.38;3.15;;;23.50;53.40;;;;;;7653284;22;81226;-69
2023/10/05 03:41:15;;;;;;;5.78;3.35;;;23.50;53.40;;;;;;7650903;22;83350;-62
2023/10/05 03:44:17;;;;;;;5.40;2.80;;;23.50;53.50;;;;;;7651891;22;82718;-62
2023/10/05 03:47:17;;;;;;;4.13;2.53;;;23.50;53.70;;;;;;7652631;22;83220;-63
2023/10/05 03:50:18;;;;;;;4.75;2.90;;;23.50;53.70;;;;;;7652417;22;82977;-65
2023/10/05 03:53:22;;;;;;;5.32;3.10;;;23.50;53.70;;;;;;7650224;22;83231;-64
2023/10/05 03:56:27;;;;;;;3.78;2.70;;;23.50;54.00;;;;;;7652594;22;81219;-69
2023/10/05 03:59:28;;;;;;;4.55;2.72;;;23.50;53.90;;;;;;7653362;22;83216;-74
2023/10/05 04:02:28;;;;;;;17.42;2.90;;;23.50;53.70;;;;;;7653531;22;83339;-69
2023/10/05 04:05:30;;;;;;;4.20;2.65;;;23.50;53.70;;;;;;7681409;22;81273;-72
2023/10/05 04:08:31;;;;;;;4.85;2.90;;;23.50;54.10;;;;;;7650161;22;82476;-64
2023/10/05 04:11:33;;;;;;;6.05;2.65;;;23.50;54.60;;;;;;7677977;22;79987;-69
2023/10/05 04:14:34;;;;;;;4.15;3.00;;;23.60;54.90;;;;;;7679612;22;80326;-68
2023/10/05 04:17:34;;;;;;;5.72;3.05;;;23.60;55.50;;;;;;7677915;22;81305;-54
2023/10/05 04:20:35;;;;;;;13.20;2.90;;;23.60;55.00;;;;;;7678193;22;80368;-58
2023/10/05 04:23:35;;;;;;;10.23;3.40;;;23.70;55.20;;;;;;7677884;22;81690;-57
2023/10/05 04:26:37;;;;;;;7.75;3.10;;;23.70;55.10;;;;;;7679616;22;80267;-52
2023/10/05 04:29:38;;;;;;;8.05;3.22;;;23.70;55.10;;;;;;7678982;22;81405;-55
2023/10/05 04:32:38;;;;;;;10.57;4.07;;;23.60;55.40;;;;;;7679486;22;80314;-56
2023/10/05 04:35:44;;;;;;;8.85;3.22;;;23.60;55.20;;;;;;7678452;22;80962;-58
2023/10/05 04:38:45;;;;;;;;;;;23.60;55.60;;;;;;7680925;22;80487;-66
2023/10/05 04:41:49;;;;;;;14.75;3.42;;;23.60;55.60;;;;;;7687702;22;80309;-69
2023/10/05 04:44:52;;;;;;;13.52;3.45;;;23.60;55.60;;;;;;7680087;22;80439;-66
2023/10/05 04:47:58;;;;;;;12.63;3.55;;;23.60;55.40;;;;;;7679370;22;81113;-69
2023/10/05 04:50:59;;;;;;;;;;;23.60;55.60;;;;;;7650411;22;84763;-69
2023/10/05 04:53:59;;;;;;;11.25;3.85;;;23.50;55.30;;;;;;7681987;22;80289;-64
2023/10/05 04:57:07;;;;;;;18.95;4.55;;;23.40;55.20;;;;;;7674733;22;80547;-68
2023/10/05 05:06:27;;;;;;;10.43;3.65;;;23.30;54.90;;;;;;7678397;22;80814;-70
2023/10/05 05:09:29;;;;;;;13.15;3.45;;;23.30;54.80;;;;;;7678418;22;80382;-70
2023/10/05 05:12:31;;;;;;;8.32;3.70;;;23.20;54.70;;;;;;7669005;22;80798;-66
2023/10/05 05:15:38;;;;;;;13.77;3.60;;;23.20;54.60;;;;;;7676329;22;81175;-66
2023/10/05 05:18:38;;;;;;;9.75;3.45;;;23.20;54.50;;;;;;7674202;22;80372;-69
2023/10/05 05:21:39;;;;;;;8.00;3.80;;;23.20;54.40;;;;;;7680231;22;80513;-68
2023/10/05 05:24:39;;;;;;;9.75;3.63;;;23.20;54.40;;;;;;7676764;22;80407;-68
2023/10/05 05:27:40;;;;;;;11.30;4.28;;;23.30;54.40;;;;;;7679270;22;80590;-68
2023/10/05 05:30:40;;;;;;;35.58;4.32;;;23.30;54.40;;;;;;7678755;22;81005;-68
2023/10/05 05:33:41;;;;;;;22.65;4.35;;;23.30;54.20;;;;;;7663327;22;81736;-67
2023/10/05 05:36:42;;;;;;;15.27;4.47;;;23.30;54.20;;;;;;7672722;22;80531;-69
2023/10/05 05:39:42;;;;;;;24.58;4.88;;;23.30;54.30;;;;;;7680684;22;80707;-68
2023/10/05 05:42:46;;;;;;;18.45;4.90;;;23.30;54.10;;;;;;7685093;22;80188;-65
2023/10/05 05:45:47;;;;;;;14.50;4.32;;;23.30;54.10;;;;;;7680750;22;81314;-65
2023/10/05 05:48:52;;;;;;;23.55;4.82;;;23.40;54.10;;;;;;7682269;22;80472;-65
2023/10/05 05:51:53;;;;;;;13.93;3.42;;;23.40;54.00;;;;;;7683626;22;81219;-63
2023/10/05 05:54:53;;;;;;;17.33;5.00;;;23.40;54.00;;;;;;7684849;22;80260;-66
2023/10/05 05:57:55;;;;;;;8.30;4.00;;;23.40;53.90;;;;;;7683121;22;80807;-70
2023/10/05 06:00:57;;;;;;;10.90;3.17;;;23.40;53.70;;;;;;7680144;22;80813;-71
2023/10/05 06:03:58;;;;;;;12.77;4.10;;;23.30;53.70;;;;;;7679237;22;87641;-71
2023/10/05 06:06:58;;;;;;;10.80;4.07;;;23.30;53.60;;;;;;7682964;22;80919;-70
2023/10/05 06:09:59;;;;;;;14.07;4.63;;;23.30;53.50;;;;;;7683897;22;80861;-69
2023/10/05 06:13:01;;;;;;;9.43;3.83;;;23.30;53.50;;;;;;7681760;22;80492;-69
2023/10/05 06:16:03;;;;;;;9.20;3.70;;;23.30;53.40;;;;;;7678914;22;81754;-70
2023/10/05 06:19:04;;;;;;;9.73;4.10;;;23.30;53.40;;;;;;7679519;22;80425;-69
2023/10/05 06:22:08;;;;;;;8.02;4.45;;;23.30;53.50;;;;;;7679400;22;80344;-70
2023/10/05 06:25:09;;;;;;;10.52;4.40;;;23.30;53.40;;;;;;7653473;22;83189;-71
2023/10/05 06:28:09;;;;;;;13.27;3.92;;;23.30;53.40;;;;;;7682069;22;80629;-70
2023/10/05 06:31:10;;;;;;;10.50;4.07;;;23.30;53.20;;;;;;7683317;22;81323;-71
2023/10/05 06:34:11;;;;;;;8.70;3.97;;;23.30;53.30;;;;;;7684375;22;80212;-71
2023/10/05 06:37:12;;;;;;;8.85;3.78;;;23.30;53.20;;;;;;7682356;22;80467;-70
2023/10/05 06:40:12;;;;;;;11.88;4.07;;;23.30;53.20;;;;;;7684182;22;81043;-70
2023/10/05 06:43:15;;;;;;;9.07;4.13;;;23.30;53.40;;;;;;7682955;22;80803;-68
2023/10/05 06:46:17;;;;;;;5.72;3.47;;;23.30;53.20;;;;;;7682495;22;80851;-65
2023/10/05 06:49:18;;;;;;;8.38;3.33;;;23.40;53.30;;;;;;7681159;22;80435;-65
2023/10/05 06:52:18;;;;;;;8.80;3.25;;;23.40;53.20;;;;;;7679278;22;80510;-65
2023/10/05 06:55:23;;;;;;;7.82;3.95;;;23.40;53.20;;;;;;7676618;22;81363;-64
2023/10/05 06:58:23;;;;;;;6.78;3.45;;;23.40;53.20;;;;;;7679386;22;81782;-64
2023/10/05 07:01:24;;;;;;;6.15;3.65;;;23.40;53.40;;;;;;7670700;22;81696;-66
2023/10/05 07:04:25;;;;;;;6.63;3.60;;;23.40;53.10;;;;;;7672682;22;80087;-64
2023/10/05 07:07:25;;;;;;;8.23;4.10;;;23.40;53.50;;;;;;7680617;22;80446;-66
2023/10/05 07:10:27;;;;;;;9.35;3.67;;;23.50;54.40;;;;;;7681628;22;80624;-64
2023/10/05 07:13:28;;;;;;;7.57;3.72;;;23.60;54.40;;;;;;7680277;22;80521;-67
2023/10/05 07:16:29;;;;;;;8.30;3.35;;;23.60;54.40;;;;;;7678587;22;80536;-64
2023/10/05 07:19:29;;;;;;;5.57;2.95;;;23.60;54.20;;;;;;7652958;22;83604;-65
2023/10/05 07:22:30;;;;;;;7.25;4.00;;;23.70;54.20;;;;;;7678108;22;81088;-73
2023/10/05 07:25:30;;;;;;;12.15;4.05;;;23.60;53.80;;;;;;7682928;22;80333;-70
2023/10/05 07:28:31;;;;;;;6.97;3.42;;;23.70;53.90;;;;;;7682817;22;80251;-71
2023/10/05 07:31:31;;;;;;;6.40;3.10;;;23.70;53.20;;;;;;7679248;22;81730;-64
2023/10/05 07:34:33;;;;;;;9.98;3.67;;;23.60;51.50;;;;;;7681808;22;80141;-63
2023/10/05 07:37:34;;;;;;;13.32;3.95;;;23.60;52.50;;;;;;7682033;22;80337;-69
2023/10/05 07:40:35;;;;;;;11.57;3.95;;;23.60;53.20;;;;;;7680425;22;80854;-59
2023/10/05 07:43:36;;;;;;;9.88;4.25;;;23.60;54.80;;;;;;7678101;22;80672;-56
2023/10/05 07:46:38;;;;;;;7.53;3.72;;;23.60;54.30;;;;;;7674084;22;81523;-57
2023/10/05 07:49:38;;;;;;;6.80;4.10;;;23.50;53.80;;;;;;7677500;22;80599;-55
2023/10/05 07:52:39;;;;;;;12.32;3.50;;;23.50;53.80;;;;;;7672242;22;80414;-55
2023/10/05 07:55:41;;;;;;;9.35;3.40;;;23.50;54.60;;;;;;7678784;22;80437;-55
2023/10/05 07:58:44;;;;;;;7.07;3.20;;;23.50;55.00;;;;;;7673668;22;81174;-67
2023/10/05 08:01:45;;;;;;;7.47;3.10;;;23.50;56.80;;;;;;7680152;22;80143;-65
2023/10/05 08:04:46;;;;;;;6.00;3.00;;;23.50;55.50;;;;;;7681781;22;79906;-66
2023/10/05 08:07:47;;;;;;;8.02;3.35;;;23.40;56.40;;;;;;7682031;22;80450;-66
2023/10/05 08:10:47;;;;;;;7.20;3.10;;;23.40;56.20;;;;;;7680979;22;80468;-65
2023/10/05 08:13:48;;;;;;;5.90;2.78;;;23.40;55.60;;;;;;7677947;22;80325;-65
2023/10/05 08:16:48;;;;;;;5.13;2.63;;;23.40;58.00;;;;;;7681805;22;80298;-65
2023/10/05 08:19:49;;;;;;;6.40;3.33;;;23.40;57.70;;;;;;7681303;22;80236;-67
2023/10/05 08:22:49;;;;;;;7.70;3.25;;;23.40;57.50;;;;;;7681198;22;80371;-65
2023/10/05 08:25:50;;;;;;;5.38;2.83;;;23.40;58.20;;;;;;7681885;22;80403;-65
2023/10/05 08:28:51;;;;;;;5.43;2.85;;;23.40;59.40;;;;;;7649721;22;81331;-66
2023/10/05 08:31:51;;;;;;;10.18;2.95;;;23.40;58.80;;;;;;7681312;22;80419;-65
2023/10/05 08:34:52;;;;;;;7.13;3.15;;;23.40;58.70;;;;;;7680065;22;80648;-65
2023/10/05 08:37:53;;;;;;;7.28;2.72;;;23.40;59.00;;;;;;7681447;22;80237;-65
2023/10/05 08:40:53;;;;;;;8.68;2.58;;;23.50;58.80;;;;;;7679920;22;80317;-64
2023/10/05 08:43:55;;;;;;;5.78;2.75;;;23.50;58.20;;;;;;7675165;22;80229;-64
2023/10/05 08:46:58;;;;;;;8.10;2.95;;;23.50;58.90;;;;;;7681209;22;80754;-65
2023/10/05 08:49:59;;;;;;;8.35;3.08;;;23.60;58.80;;;;;;7681761;22;80473;-66
2023/10/05 08:53:00;;;;;;;4.53;2.50;;;23.60;59.70;;;;;;7680831;22;80523;-65
2023/10/05 08:56:00;;;;;;;4.07;2.40;;;23.60;59.20;;;;;;7680746;22;80349;-64
2023/10/05 08:59:07;;;;;;;3.30;2.30;;;23.60;59.20;;;;;;7676826;22;81098;-63
2023/10/05 09:02:08;;;;;;;7.88;2.75;;;23.70;59.50;;;;;;7677986;22;80224;-62
2023/10/05 09:05:09;;;;;;;5.43;2.78;;;23.70;59.20;;;;;;7680655;22;80331;-64
2023/10/05 09:08:09;;;;;;;6.53;3.42;;;23.70;59.90;;;;;;7679351;22;80149;-65
2023/10/05 09:11:10;;;;;;;7.28;3.10;;;23.80;59.70;;;;;;7675958;22;80598;-65
2023/10/05 09:14:27;;;;;;;4.18;2.63;;;23.80;60.20;;;;;;7677775;22;80661;-64
2023/10/05 09:17:27;;;;;;;5.20;2.35;;;23.80;59.40;;;;;;7678457;22;81204;-67
2023/10/05 09:20:31;;;;;;;9.65;3.25;;;23.90;56.70;;;;;;7676915;22;80409;-76
2023/10/05 09:23:32;;;;;;;6.55;3.00;;;23.90;56.20;;;;;;7679167;22;80412;-68
2023/10/05 09:26:39;;;;;;;8.57;3.05;;;23.90;58.30;;;;;;7677512;22;80404;-73
2023/10/05 09:29:39;;;;;;;9.27;3.13;;;24.00;58.20;;;;;;7680892;22;80429;-58
2023/10/05 09:32:40;;;;;;;6.50;2.75;;;24.10;59.00;;;;;;7681125;22;80388;-55
2023/10/05 09:35:44;;;;;;;6.05;2.95;;;24.10;59.10;;;;;;7680135;22;80407;-57
2023/10/05 09:38:46;;;;;;;6.78;2.42;;;24.10;60.00;;;;;;7678870;22;80298;-57
2023/10/05 09:41:50;;;;;;;4.78;2.47;;;24.10;60.70;;;;;;7675227;22;80890;-54
2023/10/05 09:44:53;;;;;;;3.45;2.53;;;24.20;61.40;;;;;;7679703;22;80286;-50
2023/10/05 09:47:55;;;;;;;7.07;2.88;;;24.20;61.30;;;;;;7679554;22;84908;-52
2023/10/05 09:50:59;;;;;;;6.20;2.42;;;24.30;60.90;;;;;;7679593;22;80467;-52
2023/10/05 09:53:59;;;;;;;4.40;2.35;;;24.30;60.50;;;;;;7679685;22;81628;-55
2023/10/05 09:57:10;;;;;;;3.60;2.25;;;24.30;59.10;;;;;;7673337;22;80402;-57
2023/10/05 10:03:31;;;;;;;4.00;2.10;;;24.30;57.70;;;;;;7681439;22;80739;-56
2023/10/05 10:06:34;;;;;;;7.30;2.10;;;24.30;58.20;;;;;;7680527;22;80404;-57
2023/10/05 10:09:39;;;;;;;5.28;3.00;;;24.40;56.70;;;;;;7677924;22;80320;-57
2023/10/05 10:12:42;;;;;;;6.22;2.08;;;24.30;57.80;;;;;;7680233;22;80461;-58
2023/10/05 10:15:46;;;;;;;5.03;2.55;;;24.40;57.10;;;;;;7676125;22;80868;-56
2023/10/05 10:18:47;;;;;;;3.22;2.10;;;24.40;56.60;;;;;;7674201;22;80358;-57
2023/10/05 10:21:57;;;;;;;3.65;2.22;;;24.40;56.20;;;;;;7680581;22;80096;-54
2023/10/05 10:24:57;;;;;;;5.00;2.33;;;24.40;56.20;;;;;;7675814;22;80235;-60
2023/10/05 10:27:58;;;;;;;6.25;2.42;;;24.50;56.30;;;;;;7680017;22;81684;-60
2023/10/05 10:30:58;;;;;;;4.32;1.98;;;24.50;55.60;;;;;;7678825;22;80614;-60
2023/10/05 10:33:59;;;;;;;3.50;2.10;;;24.60;56.00;;;;;;7680752;22;80354;-59
2023/10/05 10:37:02;;;;;;;2.70;1.80;;;24.50;55.20;;;;;;7682695;22;80244;-60
2023/10/05 10:40:11;;;;;;;5.13;2.50;;;24.50;55.90;;;;;;7676669;22;81484;-59
2023/10/05 10:43:13;;;;;;;4.65;2.55;;;24.50;56.20;;;;;;7676900;22;80775;-57
2023/10/05 10:46:14;;;;;;;3.65;2.15;;;24.60;56.20;;;;;;7679071;22;80726;-59
2023/10/05 10:49:19;;;;;;;4.05;2.38;;;24.50;55.80;;;;;;7682020;22;80200;-58
2023/10/05 10:52:19;;;;;;;7.97;2.53;;;24.50;55.50;;;;;;7680643;22;80425;-56
2023/10/05 10:55:20;;;;;;;2.75;1.90;;;24.50;57.00;;;;;;7676908;22;80752;-57
2023/10/05 10:58:30;;;;;;;3.97;2.70;;;24.50;57.40;;;;;;7682321;22;80352;-55
2023/10/05 11:01:41;;;;;;;5.30;2.70;;;24.50;57.00;;;;;;7679829;22;81315;-57
2023/10/05 11:04:43;;;;;;;5.20;2.58;;;24.50;56.80;;;;;;7683400;22;80542;-71
2023/10/05 11:07:44;;;;;;;4.35;2.50;;;24.40;57.10;;;;;;7677045;22;80209;-70
2023/10/05 11:10:44;;;;;;;3.05;2.00;;;24.40;57.30;;;;;;7680732;22;80333;-71
2023/10/05 11:13:57;;;;;;;4.07;2.22;;;24.40;56.90;;;;;;7680784;22;80268;-72
2023/10/05 11:16:59;;;;;;;3.55;2.28;;;24.40;57.10;;;;;;7682490;22;80543;-71
2023/10/05 11:20:12;;;;;;;4.13;2.25;;;24.40;57.10;;;;;;7680841;22;80533;-72
2023/10/05 11:23:14;;;;;;;4.93;2.67;;;24.40;56.70;;;;;;7677889;22;80599;-70
2023/10/05 11:26:18;;;;;;;4.47;2.88;;;24.40;56.20;;;;;;7682110;22;81096;-72
2023/10/05 11:29:20;;;;;;;4.85;2.72;;;24.40;56.10;;;;;;7680622;22;80402;-74
2023/10/05 11:32:21;;;;;;;5.07;2.90;;;24.40;56.50;;;;;;7679613;22;80290;-75
2023/10/05 11:35:28;;;;;;;4.28;2.38;;;24.40;56.70;;;;;;7680921;22;80280;-71
2023/10/05 11:38:29;;;;;;;5.82;2.33;;;24.50;56.10;;;;;;7671340;22;81077;-68
2023/10/05 11:41:29;;;;;;;4.07;2.25;;;24.40;55.30;;;;;;7676702;22;81199;-67
2023/10/05 11:44:29;;;;;;;4.57;2.15;;;24.50;55.60;;;;;;7681135;22;80271;-66
2023/10/05 11:47:35;;;;;;;4.25;2.53;;;24.50;54.40;;;;;;7680288;22;80296;-65
2023/10/05 11:50:36;;;;;;;5.25;2.70;;;24.60;54.30;;;;;;7676242;22;81137;-69
2023/10/05 11:53:37;;;;;;;4.40;2.25;;;24.60;54.40;;;;;;7681060;22;80867;-67
2023/10/05 11:56:40;;;;;;;4.20;2.35;;;24.50;53.30;;;;;;7678501;22;80389;-63
2023/10/05 11:59:42;;;;;;;3.08;2.08;;;24.50;53.40;;;;;;7676112;22;80878;-64
2023/10/05 12:02:43;;;;;;;4.15;2.33;;;24.50;53.30;;;;;;7682424;22;80725;-62
2023/10/05 12:05:43;;;;;;;5.47;2.50;;;24.60;53.40;;;;;;7679169;22;81019;-62
2023/10/05 12:08:46;;;;;;;3.78;2.33;;;24.60;53.50;;;;;;7671731;22;80688;-65
2023/10/05 12:11:49;;;;;;;4.07;2.17;;;24.60;53.20;;;;;;7680156;22;80191;-64
2023/10/05 12:14:50;;;;;;;4.80;2.47;;;24.60;52.80;;;;;;7649767;22;80299;-63
2023/10/05 12:17:50;;;;;;;2.08;1.73;;;24.60;53.00;;;;;;7677113;22;80629;-66
2023/10/05 12:20:51;;;;;;;6.57;2.30;;;24.60;53.20;;;;;;7677637;22;80746;-64
2023/10/05 12:23:51;;;;;;;4.57;2.17;;;24.50;53.00;;;;;;7679350;22;80840;-63
2023/10/05 12:26:52;;;;;;;4.30;2.40;;;24.50;53.00;;;;;;7673027;22;81479;-63
2023/10/05 12:29:52;;;;;;;4.35;1.92;;;24.50;53.10;;;;;;7674487;22;80874;-63
2023/10/05 12:32:54;;;;;;;3.83;1.90;;;24.50;53.10;;;;;;7682400;22;80452;-62
2023/10/05 12:35:55;;;;;;;3.47;2.47;;;24.50;52.90;;;;;;7644719;22;85292;-66
2023/10/05 12:38:56;;;;;;;3.97;2.03;;;24.40;53.10;;;;;;7680962;22;80219;-65
2023/10/05 12:41:57;;;;;;;4.13;2.38;;;24.40;53.10;;;;;;7679248;22;82650;-66
2023/10/05 12:45:01;;;;;;;3.30;2.25;;;24.40;53.30;;;;;;7678977;22;81014;-67
2023/10/05 12:48:04;;;;;;;3.13;2.00;;;24.40;53.40;;;;;;7681295;22;80742;-67
2023/10/05 12:51:05;;;;;;;3.08;2.00;;;24.40;53.30;;;;;;7678780;22;80284;-68
2023/10/05 12:54:17;;;;;;;4.38;2.22;;;24.40;53.50;;;;;;7680420;22;80253;-66
2023/10/05 12:57:18;;;;;;;3.60;1.98;;;24.40;53.20;;;;;;7679413;22;81181;-65
2023/10/05 13:00:22;;;;;;;2.58;2.03;;;24.40;52.90;;;;;;7679266;22;80969;-67
2023/10/05 13:03:27;;;;;;;2.33;1.95;;;24.40;53.40;;;;;;7677481;22;81144;-68
2023/10/05 13:06:28;;;;;;;5.53;2.00;;;24.40;53.90;;;;;;7680846;22;80678;-70
2023/10/05 13:09:29;;;;;;;3.75;2.20;;;24.40;53.90;;;;;;7682172;22;80452;-69
2023/10/05 13:12:35;;;;;;;3.35;2.20;;;24.30;53.10;;;;;;7675343;22;80298;-55
2023/10/05 13:15:35;;;;;;;11.82;2.22;;;24.30;53.30;;;;;;7676429;22;80345;-58
2023/10/05 13:18:35;;;;;;;4.22;2.25;;;24.30;53.30;;;;;;7672900;22;80452;-50
2023/10/05 13:21:36;;;;;;;3.30;2.25;;;24.30;52.90;;;;;;7676406;22;80913;-51
2023/10/05 13:24:37;;;;;;;3.95;1.90;;;24.30;53.20;;;;;;7675741;22;80725;-55
2023/10/05 13:27:38;;;;;;;4.40;2.25;;;24.20;53.10;;;;;;7649870;22;80388;-54
2023/10/05 13:30:46;;;;;;;10.23;2.05;;;24.20;53.40;;;;;;7678274;22;80335;-64
2023/10/05 13:33:48;;;;;;;3.35;2.00;;;24.10;53.60;;;;;;7679808;22;80683;-63
2023/10/05 13:36:52;;;;;;;4.63;1.90;;;24.10;53.80;;;;;;7675873;22;80947;-64
2023/10/05 13:39:53;;;;;;;3.80;2.00;;;24.10;53.70;;;;;;7674407;22;80436;-64
2023/10/05 13:42:53;;;;;;;2.80;1.98;;;24.10;53.70;;;;;;7675590;22;80675;-61
2023/10/05 13:45:54;;;;;;;3.92;2.33;;;24.10;53.70;;;;;;7675909;22;80224;-63
2023/10/05 13:48:54;;;;;;;2.97;1.95;;;24.10;53.60;;;;;;7675210;22;80214;-59
2023/10/05 13:51:57;;;;;;;6.00;1.90;;;24.10;53.70;;;;;;7676925;22;80736;-57
2023/10/05 13:54:59;;;;;;;3.75;2.08;;;24.00;53.50;;;;;;7678553;22;80602;-57
2023/10/05 13:58:00;;;;;;;3.22;2.00;;;24.00;53.50;;;;;;7678908;22;80687;-56
2023/10/05 14:01:01;;;;;;;4.55;2.22;;;24.00;53.40;;;;;;7679998;22;81077;-55
2023/10/05 14:04:01;;;;;;;7.63;2.33;;;24.00;53.40;;;;;;7680540;22;80614;-55
2023/10/05 14:07:03;;;;;;;2.95;1.90;;;24.00;53.40;;;;;;7652482;22;81118;-66
2023/10/05 14:10:05;;;;;;;3.72;2.25;;;24.00;54.00;;;;;;7680774;22;80591;-61
2023/10/05 14:13:09;;;;;;;7.05;2.40;;;24.00;53.30;;;;;;7680497;22;80938;-62
2023/10/05 14:16:11;;;;;;;6.13;2.60;;;24.00;53.30;;;;;;7680648;22;80245;-62
2023/10/05 14:19:12;;;;;;;4.95;2.33;;;24.00;53.20;;;;;;7653108;22;81019;-63
2023/10/05 14:22:12;;;;;;;4.75;2.15;;;24.00;53.40;;;;;;7680372;22;81046;-63
2023/10/05 14:25:23;;;;;;;5.68;2.08;;;24.00;53.70;;;;;;7680412;22;81445;-62
2023/10/05 14:28:26;;;;;;;4.75;2.10;;;24.00;53.60;;;;;;7680860;22;80421;-62
2023/10/05 14:31:29;;;;;;;4.57;1.83;;;24.10;53.70;;;;;;7679953;22;80416;-62
2023/10/05 14:34:30;;;;;;;3.30;1.98;;;24.10;53.90;;;;;;7679649;22;80629;-62
2023/10/05 14:37:31;;;;;;;7.18;2.53;;;24.20;53.80;;;;;;7679973;22;80209;-61
2023/10/05 14:40:32;;;;;;;7.55;2.42;;;24.20;53.60;;;;;;7680826;22;80127;-61
2023/10/05 14:43:35;;;;;;;5.68;2.55;;;24.20;53.60;;;;;;7680277;22;81558;-63
2023/10/05 14:46:35;;;;;;;3.85;2.28;;;24.20;53.90;;;;;;7667864;22;80442;-62
2023/10/05 14:49:36;;;;;;;4.82;2.40;;;24.20;53.80;;;;;;7671427;22;82147;-63
2023/10/05 14:52:36;;;;;;;6.50;2.67;;;24.10;53.60;;;;;;7675900;22;81215;-63
2023/10/05 14:55:37;;;;;;;4.63;2.50;;;24.10;53.80;;;;;;7678051;22;80392;-63
2023/10/05 14:58:38;;;;;;;6.18;2.53;;;24.10;53.70;;;;;;7679296;22;80360;-64
2023/10/05 15:01:38;;;;;;;5.07;2.63;;;24.10;54.40;;;;;;7676970;22;80846;-58
2023/10/05 15:04:39;;;;;;;5.28;2.88;;;24.20;55.10;;;;;;7677061;22;80674;-57
2023/10/05 15:07:40;;;;;;;6.00;3.00;;;24.30;56.20;;;;;;7670546;22;81540;-57
2023/10/05 15:10:41;;;;;;;8.75;2.85;;;24.30;54.60;;;;;;7672761;22;80950;-57
2023/10/05 15:13:41;;;;;;;10.30;3.20;;;24.30;54.40;;;;;;7673842;22;81373;-59
2023/10/05 15:16:43;;;;;;;3.60;2.70;;;24.30;54.10;;;;;;7676704;22;80290;-57
2023/10/05 15:19:44;;;;;;;4.50;2.67;;;24.30;54.40;;;;;;7678307;22;80252;-67
2023/10/05 15:22:45;;;;;;;4.65;2.38;;;24.30;54.40;;;;;;7678828;22;81192;-67
2023/10/05 15:25:47;;;;;;;6.35;3.03;;;24.20;54.20;;;;;;7625736;22;82966;-69
2023/10/05 15:28:48;;;;;;;6.30;2.65;;;24.20;54.10;;;;;;7671965;22;82632;-63
2023/10/05 15:31:48;;;;;;;5.10;2.85;;;24.20;53.20;;;;;;7680132;22;80494;-66
2023/10/05 15:34:49;;;;;;;4.53;3.13;;;24.10;52.70;;;;;;7653115;22;82269;-63
2023/10/05 15:37:51;;;;;;;3.55;2.63;;;24.10;51.60;;;;;;7679429;22;80299;-65
2023/10/05 15:40:51;;;;;;;10.18;3.33;;;24.00;51.90;;;;;;7680397;22;81281;-65
2023/10/05 15:43:51;;;;;;;10.27;3.58;;;24.00;52.50;;;;;;7677472;22;80270;-62
2023/10/05 15:46:52;;;;;;;6.50;3.45;;;24.00;51.50;;;;;;7677952;22;80429;-62
2023/10/05 15:49:52;;;;;;;8.13;3.38;;;23.90;52.00;;;;;;7680535;22;80340;-62
2023/10/05 15:52:55;;;;;;;5.85;3.08;;;23.90;52.30;;;;;;7678910;22;85526;-63
2023/10/05 15:55:56;;;;;;;8.20;3.70;;;23.90;52.60;;;;;;7681373;22;80313;-59
2023/10/05 15:58:56;;;;;;;7.75;3.17;;;23.90;52.50;;;;;;7676041;22;80383;-59